<?xml version="1.0" encoding="UTF-8" standalone="no" ?>
<gpx xmlns="http://www.topografix.com/GPX/1/1" xmlns:xsi="http://www.w3.org/2001/XMLSchema-instance" xsi:schemaLocation="http://www.topografix.com/GPX/1/1 http://www.topografix.com/GPX/1/1/gpx.xsd" version="1.1" creator="VisuGPX - https://www.visugpx.com">
  <metadata>
    <name>Maroc2011 - Meknes à Midelt</name>
    <desc><![CDATA[Maroc2011, la trace de Meknes à Midelt.]]></desc>
  </metadata>
  <trk>
    <name><![CDATA[meknes midelt]]></name>
    <trkseg>
      <trkpt lat="33.897" lon="-5.54304">
        <ele>541.757</ele>
        <time>2011-04-20T08:36:21Z</time>
      </trkpt>
      <trkpt lat="33.89728" lon="-5.54305">
        <ele>543.121</ele>
        <time>2011-04-20T08:38:33Z</time>
      </trkpt>
      <trkpt lat="33.89725" lon="-5.54336">
        <ele>542.265</ele>
        <time>2011-04-20T08:39:03Z</time>
      </trkpt>
      <trkpt lat="33.89808" lon="-5.54429">
        <ele>538.05</ele>
        <time>2011-04-20T08:39:30Z</time>
      </trkpt>
      <trkpt lat="33.89815" lon="-5.54435">
        <ele>537.153</ele>
        <time>2011-04-20T08:39:32Z</time>
      </trkpt>
      <trkpt lat="33.89804" lon="-5.54532">
        <ele>534.053</ele>
        <time>2011-04-20T08:39:56Z</time>
      </trkpt>
      <trkpt lat="33.89765" lon="-5.54589">
        <ele>535.778</ele>
        <time>2011-04-20T08:40:24Z</time>
      </trkpt>
      <trkpt lat="33.89802" lon="-5.54598">
        <ele>535.684</ele>
        <time>2011-04-20T08:41:16Z</time>
      </trkpt>
      <trkpt lat="33.89849" lon="-5.54659">
        <ele>534.289</ele>
        <time>2011-04-20T08:41:41Z</time>
      </trkpt>
      <trkpt lat="33.89873" lon="-5.54622">
        <ele>532.876</ele>
        <time>2011-04-20T08:41:55Z</time>
      </trkpt>
      <trkpt lat="33.89909" lon="-5.54636">
        <ele>533.29</ele>
        <time>2011-04-20T08:42:03Z</time>
      </trkpt>
      <trkpt lat="33.89981" lon="-5.54724">
        <ele>531.964</ele>
        <time>2011-04-20T08:42:23Z</time>
      </trkpt>
      <trkpt lat="33.90054" lon="-5.54877">
        <ele>528.418</ele>
        <time>2011-04-20T08:42:43Z</time>
      </trkpt>
      <trkpt lat="33.89961" lon="-5.55062">
        <ele>531.21</ele>
        <time>2011-04-20T08:43:02Z</time>
      </trkpt>
      <trkpt lat="33.89828" lon="-5.5533">
        <ele>525.654</ele>
        <time>2011-04-20T08:43:59Z</time>
      </trkpt>
      <trkpt lat="33.89611" lon="-5.55179">
        <ele>533.491</ele>
        <time>2011-04-20T08:44:48Z</time>
      </trkpt>
      <trkpt lat="33.89502" lon="-5.55087">
        <ele>532.175</ele>
        <time>2011-04-20T08:45:00Z</time>
      </trkpt>
      <trkpt lat="33.89435" lon="-5.54964">
        <ele>522.902</ele>
        <time>2011-04-20T08:45:35Z</time>
      </trkpt>
      <trkpt lat="33.89226" lon="-5.54744">
        <ele>538.87</ele>
        <time>2011-04-20T08:46:09Z</time>
      </trkpt>
      <trkpt lat="33.89066" lon="-5.54569">
        <ele>542.617</ele>
        <time>2011-04-20T08:46:23Z</time>
      </trkpt>
      <trkpt lat="33.889" lon="-5.54359">
        <ele>550.645</ele>
        <time>2011-04-20T08:46:39Z</time>
      </trkpt>
      <trkpt lat="33.88828" lon="-5.54261">
        <ele>552.883</ele>
        <time>2011-04-20T08:46:47Z</time>
      </trkpt>
      <trkpt lat="33.88681" lon="-5.53985">
        <ele>554.392</ele>
        <time>2011-04-20T08:47:19Z</time>
      </trkpt>
      <trkpt lat="33.885" lon="-5.5377">
        <ele>555.447</ele>
        <time>2011-04-20T08:47:40Z</time>
      </trkpt>
      <trkpt lat="33.88316" lon="-5.536">
        <ele>557.052</ele>
        <time>2011-04-20T08:48:01Z</time>
      </trkpt>
      <trkpt lat="33.88255" lon="-5.5348">
        <ele>558.531</ele>
        <time>2011-04-20T08:48:15Z</time>
      </trkpt>
      <trkpt lat="33.8823" lon="-5.5339">
        <ele>558.129</ele>
        <time>2011-04-20T08:48:21Z</time>
      </trkpt>
      <trkpt lat="33.88159" lon="-5.53312">
        <ele>556.751</ele>
        <time>2011-04-20T08:48:28Z</time>
      </trkpt>
      <trkpt lat="33.87786" lon="-5.53293">
        <ele>545.756</ele>
        <time>2011-04-20T08:48:58Z</time>
      </trkpt>
      <trkpt lat="33.87689" lon="-5.53338">
        <ele>547.978</ele>
        <time>2011-04-20T08:49:08Z</time>
      </trkpt>
      <trkpt lat="33.8709" lon="-5.53839">
        <ele>555.59</ele>
        <time>2011-04-20T08:50:38Z</time>
      </trkpt>
      <trkpt lat="33.86937" lon="-5.53891">
        <ele>564.563</ele>
        <time>2011-04-20T08:50:49Z</time>
      </trkpt>
      <trkpt lat="33.86923" lon="-5.53891">
        <ele>564.562</ele>
        <time>2011-04-20T08:50:50Z</time>
      </trkpt>
      <trkpt lat="33.86802" lon="-5.53836">
        <ele>568.346</ele>
        <time>2011-04-20T08:51:06Z</time>
      </trkpt>
      <trkpt lat="33.86554" lon="-5.53556">
        <ele>581.495</ele>
        <time>2011-04-20T08:52:33Z</time>
      </trkpt>
      <trkpt lat="33.86329" lon="-5.53364">
        <ele>588.032</ele>
        <time>2011-04-20T08:53:58Z</time>
      </trkpt>
      <trkpt lat="33.86054" lon="-5.53039">
        <ele>594.652</ele>
        <time>2011-04-20T08:54:28Z</time>
      </trkpt>
      <trkpt lat="33.85623" lon="-5.52814">
        <ele>600.81</ele>
        <time>2011-04-20T08:55:25Z</time>
      </trkpt>
      <trkpt lat="33.85374" lon="-5.52742">
        <ele>616.599</ele>
        <time>2011-04-20T08:55:44Z</time>
      </trkpt>
      <trkpt lat="33.85261" lon="-5.52691">
        <ele>619.768</ele>
        <time>2011-04-20T08:55:52Z</time>
      </trkpt>
      <trkpt lat="33.84805" lon="-5.52479">
        <ele>626.434</ele>
        <time>2011-04-20T09:02:33Z</time>
      </trkpt>
      <trkpt lat="33.84564" lon="-5.52364">
        <ele>630.212</ele>
        <time>2011-04-20T09:02:53Z</time>
      </trkpt>
      <trkpt lat="33.8453" lon="-5.52348">
        <ele>626.836</ele>
        <time>2011-04-20T09:02:56Z</time>
      </trkpt>
      <trkpt lat="33.84473" lon="-5.52345">
        <ele>629.636</ele>
        <time>2011-04-20T09:03:02Z</time>
      </trkpt>
      <trkpt lat="33.84445" lon="-5.52303">
        <ele>630.108</ele>
        <time>2011-04-20T09:03:06Z</time>
      </trkpt>
      <trkpt lat="33.83751" lon="-5.51946">
        <ele>652.577</ele>
        <time>2011-04-20T09:03:51Z</time>
      </trkpt>
      <trkpt lat="33.83602" lon="-5.51859">
        <ele>656.726</ele>
        <time>2011-04-20T09:03:59Z</time>
      </trkpt>
      <trkpt lat="33.83376" lon="-5.51755">
        <ele>648.799</ele>
        <time>2011-04-20T09:04:18Z</time>
      </trkpt>
      <trkpt lat="33.83149" lon="-5.5157">
        <ele>652.982</ele>
        <time>2011-04-20T09:04:39Z</time>
      </trkpt>
      <trkpt lat="33.82917" lon="-5.5151">
        <ele>661.631</ele>
        <time>2011-04-20T09:04:52Z</time>
      </trkpt>
      <trkpt lat="33.82659" lon="-5.51481">
        <ele>654.964</ele>
        <time>2011-04-20T09:05:19Z</time>
      </trkpt>
      <trkpt lat="33.8238" lon="-5.51379">
        <ele>659.23</ele>
        <time>2011-04-20T09:05:37Z</time>
      </trkpt>
      <trkpt lat="33.82208" lon="-5.51282">
        <ele>653.424</ele>
        <time>2011-04-20T09:05:46Z</time>
      </trkpt>
      <trkpt lat="33.81773" lon="-5.51144">
        <ele>647.085</ele>
        <time>2011-04-20T09:06:09Z</time>
      </trkpt>
      <trkpt lat="33.81237" lon="-5.50846">
        <ele>648.799</ele>
        <time>2011-04-20T09:06:38Z</time>
      </trkpt>
      <trkpt lat="33.80793" lon="-5.50651">
        <ele>659.62</ele>
        <time>2011-04-20T09:07:09Z</time>
      </trkpt>
      <trkpt lat="33.8059" lon="-5.50536">
        <ele>660.146</ele>
        <time>2011-04-20T09:07:20Z</time>
      </trkpt>
      <trkpt lat="33.80174" lon="-5.50209">
        <ele>663.716</ele>
        <time>2011-04-20T09:07:44Z</time>
      </trkpt>
      <trkpt lat="33.8009" lon="-5.50112">
        <ele>659.833</ele>
        <time>2011-04-20T09:07:56Z</time>
      </trkpt>
      <trkpt lat="33.79971" lon="-5.4986">
        <ele>665.345</ele>
        <time>2011-04-20T09:08:11Z</time>
      </trkpt>
      <trkpt lat="33.79896" lon="-5.49724">
        <ele>664.564</ele>
        <time>2011-04-20T09:08:18Z</time>
      </trkpt>
      <trkpt lat="33.79637" lon="-5.49523">
        <ele>684.636</ele>
        <time>2011-04-20T09:08:33Z</time>
      </trkpt>
      <trkpt lat="33.79618" lon="-5.49513">
        <ele>684.901</ele>
        <time>2011-04-20T09:08:34Z</time>
      </trkpt>
      <trkpt lat="33.79437" lon="-5.49449">
        <ele>693.547</ele>
        <time>2011-04-20T09:08:42Z</time>
      </trkpt>
      <trkpt lat="33.78967" lon="-5.49265">
        <ele>695.469</ele>
        <time>2011-04-20T09:09:02Z</time>
      </trkpt>
      <trkpt lat="33.78683" lon="-5.4918">
        <ele>700.616</ele>
        <time>2011-04-20T09:09:14Z</time>
      </trkpt>
      <trkpt lat="33.77787" lon="-5.49057">
        <ele>715.214</ele>
        <time>2011-04-20T09:09:53Z</time>
      </trkpt>
      <trkpt lat="33.77148" lon="-5.48997">
        <ele>724.443</ele>
        <time>2011-04-20T09:10:19Z</time>
      </trkpt>
      <trkpt lat="33.7684" lon="-5.48827">
        <ele>725.181</ele>
        <time>2011-04-20T09:10:33Z</time>
      </trkpt>
      <trkpt lat="33.76727" lon="-5.48741">
        <ele>720.977</ele>
        <time>2011-04-20T09:10:39Z</time>
      </trkpt>
      <trkpt lat="33.76579" lon="-5.48691">
        <ele>719.316</ele>
        <time>2011-04-20T09:10:47Z</time>
      </trkpt>
      <trkpt lat="33.75319" lon="-5.48414">
        <ele>730.657</ele>
        <time>2011-04-20T09:12:32Z</time>
      </trkpt>
      <trkpt lat="33.75307" lon="-5.48409">
        <ele>730.659</ele>
        <time>2011-04-20T09:12:33Z</time>
      </trkpt>
      <trkpt lat="33.75106" lon="-5.48257">
        <ele>728.194</ele>
        <time>2011-04-20T09:12:49Z</time>
      </trkpt>
      <trkpt lat="33.74675" lon="-5.47811">
        <ele>731.215</ele>
        <time>2011-04-20T09:13:29Z</time>
      </trkpt>
      <trkpt lat="33.74408" lon="-5.47578">
        <ele>739.499</ele>
        <time>2011-04-20T09:13:45Z</time>
      </trkpt>
      <trkpt lat="33.74276" lon="-5.47493">
        <ele>742.386</ele>
        <time>2011-04-20T09:13:52Z</time>
      </trkpt>
      <trkpt lat="33.73601" lon="-5.47202">
        <ele>760.444</ele>
        <time>2011-04-20T09:14:26Z</time>
      </trkpt>
      <trkpt lat="33.73451" lon="-5.47095">
        <ele>763.033</ele>
        <time>2011-04-20T09:14:34Z</time>
      </trkpt>
      <trkpt lat="33.73263" lon="-5.46946">
        <ele>758.179</ele>
        <time>2011-04-20T09:14:45Z</time>
      </trkpt>
      <trkpt lat="33.72668" lon="-5.46297">
        <ele>777.016</ele>
        <time>2011-04-20T09:15:32Z</time>
      </trkpt>
      <trkpt lat="33.72061" lon="-5.4562">
        <ele>778.004</ele>
        <time>2011-04-20T09:16:10Z</time>
      </trkpt>
      <trkpt lat="33.71857" lon="-5.45358">
        <ele>782.749</ele>
        <time>2011-04-20T09:16:25Z</time>
      </trkpt>
      <trkpt lat="33.7141" lon="-5.44388">
        <ele>796.103</ele>
        <time>2011-04-20T09:17:06Z</time>
      </trkpt>
      <trkpt lat="33.71166" lon="-5.43901">
        <ele>799.401</ele>
        <time>2011-04-20T09:17:27Z</time>
      </trkpt>
      <trkpt lat="33.70825" lon="-5.43227">
        <ele>795.718</ele>
        <time>2011-04-20T09:17:57Z</time>
      </trkpt>
      <trkpt lat="33.70762" lon="-5.42983">
        <ele>800.77</ele>
        <time>2011-04-20T09:18:07Z</time>
      </trkpt>
      <trkpt lat="33.70704" lon="-5.42525">
        <ele>793.381</ele>
        <time>2011-04-20T09:18:26Z</time>
      </trkpt>
      <trkpt lat="33.69666" lon="-5.40731">
        <ele>813.605</ele>
        <time>2011-04-20T09:19:44Z</time>
      </trkpt>
      <trkpt lat="33.69097" lon="-5.39841">
        <ele>845.149</ele>
        <time>2011-04-20T09:20:37Z</time>
      </trkpt>
      <trkpt lat="33.69038" lon="-5.39582">
        <ele>859.712</ele>
        <time>2011-04-20T09:20:50Z</time>
      </trkpt>
      <trkpt lat="33.69069" lon="-5.39265">
        <ele>873.067</ele>
        <time>2011-04-20T09:21:03Z</time>
      </trkpt>
      <trkpt lat="33.69201" lon="-5.38578">
        <ele>889.529</ele>
        <time>2011-04-20T09:22:28Z</time>
      </trkpt>
      <trkpt lat="33.69352" lon="-5.38308">
        <ele>910.867</ele>
        <time>2011-04-20T09:22:43Z</time>
      </trkpt>
      <trkpt lat="33.69361" lon="-5.38253">
        <ele>912.224</ele>
        <time>2011-04-20T09:22:46Z</time>
      </trkpt>
      <trkpt lat="33.69348" lon="-5.38152">
        <ele>919.283</ele>
        <time>2011-04-20T09:22:53Z</time>
      </trkpt>
      <trkpt lat="33.69297" lon="-5.38072">
        <ele>926.703</ele>
        <time>2011-04-20T09:23:00Z</time>
      </trkpt>
      <trkpt lat="33.69104" lon="-5.37989">
        <ele>943.305</ele>
        <time>2011-04-20T09:23:16Z</time>
      </trkpt>
      <trkpt lat="33.68909" lon="-5.37854">
        <ele>959.925</ele>
        <time>2011-04-20T09:23:33Z</time>
      </trkpt>
      <trkpt lat="33.68885" lon="-5.37691">
        <ele>971.914</ele>
        <time>2011-04-20T09:23:45Z</time>
      </trkpt>
      <trkpt lat="33.68914" lon="-5.3759">
        <ele>978.531</ele>
        <time>2011-04-20T09:23:52Z</time>
      </trkpt>
      <trkpt lat="33.68924" lon="-5.3745">
        <ele>984.852</ele>
        <time>2011-04-20T09:24:01Z</time>
      </trkpt>
      <trkpt lat="33.6885" lon="-5.37167">
        <ele>1004.167</ele>
        <time>2011-04-20T09:24:21Z</time>
      </trkpt>
      <trkpt lat="33.6879" lon="-5.37048">
        <ele>1010.116</ele>
        <time>2011-04-20T09:24:31Z</time>
      </trkpt>
      <trkpt lat="33.68652" lon="-5.37021">
        <ele>1023.851</ele>
        <time>2011-04-20T09:24:44Z</time>
      </trkpt>
      <trkpt lat="33.68326" lon="-5.3729">
        <ele>1039.261</ele>
        <time>2011-04-20T09:25:19Z</time>
      </trkpt>
      <trkpt lat="33.68223" lon="-5.37279">
        <ele>1044.907</ele>
        <time>2011-04-20T09:25:29Z</time>
      </trkpt>
      <trkpt lat="33.67963" lon="-5.37237">
        <ele>1046.765</ele>
        <time>2011-04-20T09:25:50Z</time>
      </trkpt>
      <trkpt lat="33.6541" lon="-5.37537">
        <ele>1141.133</ele>
        <time>2011-04-20T09:28:24Z</time>
      </trkpt>
      <trkpt lat="33.6539" lon="-5.37538">
        <ele>1141.135</ele>
        <time>2011-04-20T09:28:25Z</time>
      </trkpt>
      <trkpt lat="33.65115" lon="-5.37486">
        <ele>1166.414</ele>
        <time>2011-04-20T09:28:40Z</time>
      </trkpt>
      <trkpt lat="33.64906" lon="-5.37341">
        <ele>1183.593</ele>
        <time>2011-04-20T09:28:52Z</time>
      </trkpt>
      <trkpt lat="33.64728" lon="-5.37312">
        <ele>1195.579</ele>
        <time>2011-04-20T09:29:01Z</time>
      </trkpt>
      <trkpt lat="33.64449" lon="-5.37298">
        <ele>1201.815</ele>
        <time>2011-04-20T09:29:15Z</time>
      </trkpt>
      <trkpt lat="33.64307" lon="-5.37254">
        <ele>1210.4</ele>
        <time>2011-04-20T09:29:22Z</time>
      </trkpt>
      <trkpt lat="33.64162" lon="-5.37219">
        <ele>1212.454</ele>
        <time>2011-04-20T09:29:29Z</time>
      </trkpt>
      <trkpt lat="33.63066" lon="-5.37341">
        <ele>1262.823</ele>
        <time>2011-04-20T09:30:23Z</time>
      </trkpt>
      <trkpt lat="33.62953" lon="-5.37389">
        <ele>1271.137</ele>
        <time>2011-04-20T09:30:29Z</time>
      </trkpt>
      <trkpt lat="33.62792" lon="-5.37457">
        <ele>1275.469</ele>
        <time>2011-04-20T09:30:37Z</time>
      </trkpt>
      <trkpt lat="33.62623" lon="-5.37472">
        <ele>1274.861</ele>
        <time>2011-04-20T09:30:46Z</time>
      </trkpt>
      <trkpt lat="33.62359" lon="-5.37375">
        <ele>1285.213</ele>
        <time>2011-04-20T09:30:59Z</time>
      </trkpt>
      <trkpt lat="33.62271" lon="-5.37309">
        <ele>1290.789</ele>
        <time>2011-04-20T09:31:04Z</time>
      </trkpt>
      <trkpt lat="33.62127" lon="-5.37163">
        <ele>1295.914</ele>
        <time>2011-04-20T09:31:13Z</time>
      </trkpt>
      <trkpt lat="33.61868" lon="-5.36977">
        <ele>1283.097</ele>
        <time>2011-04-20T09:31:28Z</time>
      </trkpt>
      <trkpt lat="33.61551" lon="-5.36978">
        <ele>1270.698</ele>
        <time>2011-04-20T09:31:46Z</time>
      </trkpt>
      <trkpt lat="33.61322" lon="-5.36845">
        <ele>1279.288</ele>
        <time>2011-04-20T09:32:05Z</time>
      </trkpt>
      <trkpt lat="33.61105" lon="-5.36848">
        <ele>1278.295</ele>
        <time>2011-04-20T09:32:18Z</time>
      </trkpt>
      <trkpt lat="33.60888" lon="-5.36712">
        <ele>1287.696</ele>
        <time>2011-04-20T09:32:30Z</time>
      </trkpt>
      <trkpt lat="33.60712" lon="-5.3665">
        <ele>1291.956</ele>
        <time>2011-04-20T09:32:39Z</time>
      </trkpt>
      <trkpt lat="33.60135" lon="-5.36685">
        <ele>1301.164</ele>
        <time>2011-04-20T09:33:08Z</time>
      </trkpt>
      <trkpt lat="33.59971" lon="-5.36754">
        <ele>1302.053</ele>
        <time>2011-04-20T09:33:16Z</time>
      </trkpt>
      <trkpt lat="33.59685" lon="-5.36709">
        <ele>1312.023</ele>
        <time>2011-04-20T09:33:29Z</time>
      </trkpt>
      <trkpt lat="33.59316" lon="-5.36583">
        <ele>1327.053</ele>
        <time>2011-04-20T09:33:46Z</time>
      </trkpt>
      <trkpt lat="33.59119" lon="-5.36482">
        <ele>1326.763</ele>
        <time>2011-04-20T09:33:56Z</time>
      </trkpt>
      <trkpt lat="33.58574" lon="-5.36119">
        <ele>1341.013</ele>
        <time>2011-04-20T09:34:26Z</time>
      </trkpt>
      <trkpt lat="33.58233" lon="-5.36022">
        <ele>1345.878</ele>
        <time>2011-04-20T09:34:50Z</time>
      </trkpt>
      <trkpt lat="33.57783" lon="-5.35818">
        <ele>1349.476</ele>
        <time>2011-04-20T09:35:14Z</time>
      </trkpt>
      <trkpt lat="33.57523" lon="-5.35671">
        <ele>1350.325</ele>
        <time>2011-04-20T09:35:28Z</time>
      </trkpt>
      <trkpt lat="33.56355" lon="-5.34299">
        <ele>1355.754</ele>
        <time>2011-04-20T09:36:48Z</time>
      </trkpt>
      <trkpt lat="33.5609" lon="-5.33997">
        <ele>1352.607</ele>
        <time>2011-04-20T09:37:06Z</time>
      </trkpt>
      <trkpt lat="33.55759" lon="-5.33551">
        <ele>1357.317</ele>
        <time>2011-04-20T09:37:29Z</time>
      </trkpt>
      <trkpt lat="33.55612" lon="-5.33316">
        <ele>1361.822</ele>
        <time>2011-04-20T09:37:40Z</time>
      </trkpt>
      <trkpt lat="33.55452" lon="-5.33147">
        <ele>1368.311</ele>
        <time>2011-04-20T09:37:50Z</time>
      </trkpt>
      <trkpt lat="33.55053" lon="-5.32935">
        <ele>1399.183</ele>
        <time>2011-04-20T09:38:12Z</time>
      </trkpt>
      <trkpt lat="33.54988" lon="-5.32877">
        <ele>1403.713</ele>
        <time>2011-04-20T09:38:16Z</time>
      </trkpt>
      <trkpt lat="33.5496" lon="-5.32816">
        <ele>1410.278</ele>
        <time>2011-04-20T09:38:19Z</time>
      </trkpt>
      <trkpt lat="33.54915" lon="-5.327">
        <ele>1412.723</ele>
        <time>2011-04-20T09:38:24Z</time>
      </trkpt>
      <trkpt lat="33.5482" lon="-5.32477">
        <ele>1413.828</ele>
        <time>2011-04-20T09:38:34Z</time>
      </trkpt>
      <trkpt lat="33.54582" lon="-5.32118">
        <ele>1410.676</ele>
        <time>2011-04-20T09:39:03Z</time>
      </trkpt>
      <trkpt lat="33.54573" lon="-5.32147">
        <ele>1417.425</ele>
        <time>2011-04-20T09:50:04Z</time>
      </trkpt>
      <trkpt lat="33.54573" lon="-5.32147">
        <ele>1416.373</ele>
        <time>2011-04-20T09:51:13Z</time>
      </trkpt>
      <trkpt lat="33.54575" lon="-5.32109">
        <ele>1418.293</ele>
        <time>2011-04-20T09:53:31Z</time>
      </trkpt>
      <trkpt lat="33.54529" lon="-5.32046">
        <ele>1421.152</ele>
        <time>2011-04-20T09:53:40Z</time>
      </trkpt>
      <trkpt lat="33.54392" lon="-5.31837">
        <ele>1425.85</ele>
        <time>2011-04-20T09:53:56Z</time>
      </trkpt>
      <trkpt lat="33.5428" lon="-5.31609">
        <ele>1429.428</ele>
        <time>2011-04-20T09:54:09Z</time>
      </trkpt>
      <trkpt lat="33.54164" lon="-5.31473">
        <ele>1433.679</ele>
        <time>2011-04-20T09:54:18Z</time>
      </trkpt>
      <trkpt lat="33.53556" lon="-5.31085">
        <ele>1452.966</ele>
        <time>2011-04-20T09:54:51Z</time>
      </trkpt>
      <trkpt lat="33.53502" lon="-5.31046">
        <ele>1453.267</ele>
        <time>2011-04-20T09:54:54Z</time>
      </trkpt>
      <trkpt lat="33.53417" lon="-5.30912">
        <ele>1453.191</ele>
        <time>2011-04-20T09:55:01Z</time>
      </trkpt>
      <trkpt lat="33.53303" lon="-5.30733">
        <ele>1450.787</ele>
        <time>2011-04-20T09:55:10Z</time>
      </trkpt>
      <trkpt lat="33.53169" lon="-5.30607">
        <ele>1450.754</ele>
        <time>2011-04-20T09:55:18Z</time>
      </trkpt>
      <trkpt lat="33.53018" lon="-5.30544">
        <ele>1449.249</ele>
        <time>2011-04-20T09:55:25Z</time>
      </trkpt>
      <trkpt lat="33.52412" lon="-5.30454">
        <ele>1443.45</ele>
        <time>2011-04-20T09:55:52Z</time>
      </trkpt>
      <trkpt lat="33.51988" lon="-5.30336">
        <ele>1446.354</ele>
        <time>2011-04-20T09:56:12Z</time>
      </trkpt>
      <trkpt lat="33.51807" lon="-5.3029">
        <ele>1444.075</ele>
        <time>2011-04-20T09:56:21Z</time>
      </trkpt>
      <trkpt lat="33.51524" lon="-5.30139">
        <ele>1437.611</ele>
        <time>2011-04-20T09:56:38Z</time>
      </trkpt>
      <trkpt lat="33.51424" lon="-5.30132">
        <ele>1437.511</ele>
        <time>2011-04-20T09:56:44Z</time>
      </trkpt>
      <trkpt lat="33.51248" lon="-5.30189">
        <ele>1438.35</ele>
        <time>2011-04-20T09:56:54Z</time>
      </trkpt>
      <trkpt lat="33.51073" lon="-5.30185">
        <ele>1438.363</ele>
        <time>2011-04-20T09:57:03Z</time>
      </trkpt>
      <trkpt lat="33.51039" lon="-5.30179">
        <ele>1437.612</ele>
        <time>2011-04-20T09:57:05Z</time>
      </trkpt>
      <trkpt lat="33.50962" lon="-5.30122">
        <ele>1437.268</ele>
        <time>2011-04-20T09:57:10Z</time>
      </trkpt>
      <trkpt lat="33.50828" lon="-5.29948">
        <ele>1434.762</ele>
        <time>2011-04-20T09:57:20Z</time>
      </trkpt>
      <trkpt lat="33.5051" lon="-5.29549">
        <ele>1425.413</ele>
        <time>2011-04-20T09:57:43Z</time>
      </trkpt>
      <trkpt lat="33.50278" lon="-5.29391">
        <ele>1426.708</ele>
        <time>2011-04-20T09:57:57Z</time>
      </trkpt>
      <trkpt lat="33.50179" lon="-5.2914">
        <ele>1425.013</ele>
        <time>2011-04-20T09:58:12Z</time>
      </trkpt>
      <trkpt lat="33.50187" lon="-5.2876">
        <ele>1429.706</ele>
        <time>2011-04-20T09:58:30Z</time>
      </trkpt>
      <trkpt lat="33.50229" lon="-5.28429">
        <ele>1425.326</ele>
        <time>2011-04-20T09:58:43Z</time>
      </trkpt>
      <trkpt lat="33.50202" lon="-5.28154">
        <ele>1425.166</ele>
        <time>2011-04-20T09:58:55Z</time>
      </trkpt>
      <trkpt lat="33.50149" lon="-5.27934">
        <ele>1425.433</ele>
        <time>2011-04-20T09:59:05Z</time>
      </trkpt>
      <trkpt lat="33.50067" lon="-5.27795">
        <ele>1428.404</ele>
        <time>2011-04-20T09:59:12Z</time>
      </trkpt>
      <trkpt lat="33.49829" lon="-5.27461">
        <ele>1430.808</ele>
        <time>2011-04-20T09:59:29Z</time>
      </trkpt>
      <trkpt lat="33.49777" lon="-5.27354">
        <ele>1429.408</ele>
        <time>2011-04-20T09:59:34Z</time>
      </trkpt>
      <trkpt lat="33.49749" lon="-5.27149">
        <ele>1428.761</ele>
        <time>2011-04-20T09:59:42Z</time>
      </trkpt>
      <trkpt lat="33.49734" lon="-5.26999">
        <ele>1426.493</ele>
        <time>2011-04-20T09:59:48Z</time>
      </trkpt>
      <trkpt lat="33.49653" lon="-5.26921">
        <ele>1424.663</ele>
        <time>2011-04-20T09:59:54Z</time>
      </trkpt>
      <trkpt lat="33.496" lon="-5.26831">
        <ele>1417.81</ele>
        <time>2011-04-20T10:00:00Z</time>
      </trkpt>
      <trkpt lat="33.4977" lon="-5.26692">
        <ele>1403.467</ele>
        <time>2011-04-20T10:00:19Z</time>
      </trkpt>
      <trkpt lat="33.49794" lon="-5.26065">
        <ele>1362.098</ele>
        <time>2011-04-20T10:00:56Z</time>
      </trkpt>
      <trkpt lat="33.49718" lon="-5.26044">
        <ele>1355.473</ele>
        <time>2011-04-20T10:01:03Z</time>
      </trkpt>
      <trkpt lat="33.49543" lon="-5.26155">
        <ele>1340.202</ele>
        <time>2011-04-20T10:01:19Z</time>
      </trkpt>
      <trkpt lat="33.49403" lon="-5.2634">
        <ele>1323.002</ele>
        <time>2011-04-20T10:01:47Z</time>
      </trkpt>
      <trkpt lat="33.49175" lon="-5.26267">
        <ele>1310.516</ele>
        <time>2011-04-20T10:02:03Z</time>
      </trkpt>
      <trkpt lat="33.48988" lon="-5.26256">
        <ele>1300.279</ele>
        <time>2011-04-20T10:02:15Z</time>
      </trkpt>
      <trkpt lat="33.4875" lon="-5.26218">
        <ele>1282.473</ele>
        <time>2011-04-20T10:02:31Z</time>
      </trkpt>
      <trkpt lat="33.48601" lon="-5.26152">
        <ele>1274.345</ele>
        <time>2011-04-20T10:02:42Z</time>
      </trkpt>
      <trkpt lat="33.47966" lon="-5.25424">
        <ele>1246.556</ele>
        <time>2011-04-20T10:03:36Z</time>
      </trkpt>
      <trkpt lat="33.47801" lon="-5.25274">
        <ele>1237.821</ele>
        <time>2011-04-20T10:03:47Z</time>
      </trkpt>
      <trkpt lat="33.47258" lon="-5.2449">
        <ele>1228.071</ele>
        <time>2011-04-20T10:04:41Z</time>
      </trkpt>
      <trkpt lat="33.47002" lon="-5.24298">
        <ele>1223.757</ele>
        <time>2011-04-20T10:05:01Z</time>
      </trkpt>
      <trkpt lat="33.46851" lon="-5.2429">
        <ele>1224.135</ele>
        <time>2011-04-20T10:05:12Z</time>
      </trkpt>
      <trkpt lat="33.46698" lon="-5.24362">
        <ele>1218.839</ele>
        <time>2011-04-20T10:05:24Z</time>
      </trkpt>
      <trkpt lat="33.46588" lon="-5.2436">
        <ele>1215.484</ele>
        <time>2011-04-20T10:05:32Z</time>
      </trkpt>
      <trkpt lat="33.46493" lon="-5.24326">
        <ele>1212.32</ele>
        <time>2011-04-20T10:05:39Z</time>
      </trkpt>
      <trkpt lat="33.46417" lon="-5.24275">
        <ele>1213.702</ele>
        <time>2011-04-20T10:05:45Z</time>
      </trkpt>
      <trkpt lat="33.46202" lon="-5.24005">
        <ele>1225.993</ele>
        <time>2011-04-20T10:06:07Z</time>
      </trkpt>
      <trkpt lat="33.46138" lon="-5.23968">
        <ele>1231.068</ele>
        <time>2011-04-20T10:06:12Z</time>
      </trkpt>
      <trkpt lat="33.45705" lon="-5.23824">
        <ele>1230.998</ele>
        <time>2011-04-20T10:06:44Z</time>
      </trkpt>
      <trkpt lat="33.45562" lon="-5.23649">
        <ele>1223.712</ele>
        <time>2011-04-20T10:06:59Z</time>
      </trkpt>
      <trkpt lat="33.44366" lon="-5.22811">
        <ele>1239.587</ele>
        <time>2011-04-20T10:10:03Z</time>
      </trkpt>
      <trkpt lat="33.44083" lon="-5.22546">
        <ele>1248.558</ele>
        <time>2011-04-20T10:10:52Z</time>
      </trkpt>
      <trkpt lat="33.43819" lon="-5.22368">
        <ele>1262.852</ele>
        <time>2011-04-20T10:11:26Z</time>
      </trkpt>
      <trkpt lat="33.43744" lon="-5.2229">
        <ele>1269.535</ele>
        <time>2011-04-20T10:11:36Z</time>
      </trkpt>
      <trkpt lat="33.43762" lon="-5.22135">
        <ele>1278.257</ele>
        <time>2011-04-20T10:11:54Z</time>
      </trkpt>
      <trkpt lat="33.43701" lon="-5.21939">
        <ele>1289.648</ele>
        <time>2011-04-20T10:12:14Z</time>
      </trkpt>
      <trkpt lat="33.43748" lon="-5.21801">
        <ele>1304.77</ele>
        <time>2011-04-20T10:12:30Z</time>
      </trkpt>
      <trkpt lat="33.43852" lon="-5.21548">
        <ele>1316.962</ele>
        <time>2011-04-20T10:12:52Z</time>
      </trkpt>
      <trkpt lat="33.43874" lon="-5.21364">
        <ele>1327.217</ele>
        <time>2011-04-20T10:13:07Z</time>
      </trkpt>
      <trkpt lat="33.4386" lon="-5.21196">
        <ele>1337.28</ele>
        <time>2011-04-20T10:13:22Z</time>
      </trkpt>
      <trkpt lat="33.43752" lon="-5.20867">
        <ele>1360.347</ele>
        <time>2011-04-20T10:13:51Z</time>
      </trkpt>
      <trkpt lat="33.43739" lon="-5.20834">
        <ele>1362.199</ele>
        <time>2011-04-20T10:13:54Z</time>
      </trkpt>
      <trkpt lat="33.43534" lon="-5.20541">
        <ele>1382.285</ele>
        <time>2011-04-20T10:14:24Z</time>
      </trkpt>
      <trkpt lat="33.43407" lon="-5.20439">
        <ele>1393.253</ele>
        <time>2011-04-20T10:14:35Z</time>
      </trkpt>
      <trkpt lat="33.43339" lon="-5.20388">
        <ele>1397.375</ele>
        <time>2011-04-20T10:14:40Z</time>
      </trkpt>
      <trkpt lat="33.43211" lon="-5.20307">
        <ele>1411.922</ele>
        <time>2011-04-20T10:14:49Z</time>
      </trkpt>
      <trkpt lat="33.43133" lon="-5.20269">
        <ele>1414.573</ele>
        <time>2011-04-20T10:14:54Z</time>
      </trkpt>
      <trkpt lat="33.4288" lon="-5.20286">
        <ele>1433.282</ele>
        <time>2011-04-20T10:15:10Z</time>
      </trkpt>
      <trkpt lat="33.42806" lon="-5.20157">
        <ele>1447.764</ele>
        <time>2011-04-20T10:15:19Z</time>
      </trkpt>
      <trkpt lat="33.42788" lon="-5.19941">
        <ele>1459.332</ele>
        <time>2011-04-20T10:15:31Z</time>
      </trkpt>
      <trkpt lat="33.4268" lon="-5.1982">
        <ele>1470.27</ele>
        <time>2011-04-20T10:15:43Z</time>
      </trkpt>
      <trkpt lat="33.42597" lon="-5.19729">
        <ele>1476.858</ele>
        <time>2011-04-20T10:15:50Z</time>
      </trkpt>
      <trkpt lat="33.4257" lon="-5.19645">
        <ele>1482.446</ele>
        <time>2011-04-20T10:15:56Z</time>
      </trkpt>
      <trkpt lat="33.42555" lon="-5.19567">
        <ele>1486.473</ele>
        <time>2011-04-20T10:16:01Z</time>
      </trkpt>
      <trkpt lat="33.42592" lon="-5.1925">
        <ele>1507.222</ele>
        <time>2011-04-20T10:17:29Z</time>
      </trkpt>
      <trkpt lat="33.42817" lon="-5.19033">
        <ele>1534.398</ele>
        <time>2011-04-20T10:17:47Z</time>
      </trkpt>
      <trkpt lat="33.43075" lon="-5.1887">
        <ele>1562.282</ele>
        <time>2011-04-20T10:18:01Z</time>
      </trkpt>
      <trkpt lat="33.43447" lon="-5.18623">
        <ele>1591.189</ele>
        <time>2011-04-20T10:18:22Z</time>
      </trkpt>
      <trkpt lat="33.43503" lon="-5.18581">
        <ele>1589.387</ele>
        <time>2011-04-20T10:18:26Z</time>
      </trkpt>
      <trkpt lat="33.43517" lon="-5.18528">
        <ele>1591.136</ele>
        <time>2011-04-20T10:18:29Z</time>
      </trkpt>
      <trkpt lat="33.43494" lon="-5.18312">
        <ele>1602.838</ele>
        <time>2011-04-20T10:18:38Z</time>
      </trkpt>
      <trkpt lat="33.43484" lon="-5.18183">
        <ele>1607.468</ele>
        <time>2011-04-20T10:18:43Z</time>
      </trkpt>
      <trkpt lat="33.43457" lon="-5.18062">
        <ele>1613.278</ele>
        <time>2011-04-20T10:18:48Z</time>
      </trkpt>
      <trkpt lat="33.43324" lon="-5.17838">
        <ele>1626.42</ele>
        <time>2011-04-20T10:18:58Z</time>
      </trkpt>
      <trkpt lat="33.4313" lon="-5.17468">
        <ele>1632.799</ele>
        <time>2011-04-20T10:19:20Z</time>
      </trkpt>
      <trkpt lat="33.42973" lon="-5.17419">
        <ele>1654.064</ele>
        <time>2011-04-20T10:19:29Z</time>
      </trkpt>
      <trkpt lat="33.42915" lon="-5.17406">
        <ele>1656.03</ele>
        <time>2011-04-20T10:19:32Z</time>
      </trkpt>
      <trkpt lat="33.42831" lon="-5.17422">
        <ele>1662.702</ele>
        <time>2011-04-20T10:19:37Z</time>
      </trkpt>
      <trkpt lat="33.42712" lon="-5.1754">
        <ele>1676.51</ele>
        <time>2011-04-20T10:19:45Z</time>
      </trkpt>
      <trkpt lat="33.42657" lon="-5.17623">
        <ele>1682.451</ele>
        <time>2011-04-20T10:19:49Z</time>
      </trkpt>
      <trkpt lat="33.42575" lon="-5.17843">
        <ele>1692.359</ele>
        <time>2011-04-20T10:20:01Z</time>
      </trkpt>
      <trkpt lat="33.42474" lon="-5.17907">
        <ele>1700.925</ele>
        <time>2011-04-20T10:20:07Z</time>
      </trkpt>
      <trkpt lat="33.42208" lon="-5.17867">
        <ele>1718.8</ele>
        <time>2011-04-20T10:20:22Z</time>
      </trkpt>
      <trkpt lat="33.42038" lon="-5.17796">
        <ele>1732.793</ele>
        <time>2011-04-20T10:20:34Z</time>
      </trkpt>
      <trkpt lat="33.41971" lon="-5.17808">
        <ele>1739.574</ele>
        <time>2011-04-20T10:20:38Z</time>
      </trkpt>
      <trkpt lat="33.41512" lon="-5.17967">
        <ele>1752.526</ele>
        <time>2011-04-20T10:21:07Z</time>
      </trkpt>
      <trkpt lat="33.40782" lon="-5.18512">
        <ele>1806.63</ele>
        <time>2011-04-20T10:22:00Z</time>
      </trkpt>
      <trkpt lat="33.40718" lon="-5.1852">
        <ele>1813.604</ele>
        <time>2011-04-20T10:22:04Z</time>
      </trkpt>
      <trkpt lat="33.40607" lon="-5.18479">
        <ele>1823.143</ele>
        <time>2011-04-20T10:22:11Z</time>
      </trkpt>
      <trkpt lat="33.40518" lon="-5.18424">
        <ele>1823.123</ele>
        <time>2011-04-20T10:22:18Z</time>
      </trkpt>
      <trkpt lat="33.4017" lon="-5.18027">
        <ele>1839.974</ele>
        <time>2011-04-20T10:22:44Z</time>
      </trkpt>
      <trkpt lat="33.4007" lon="-5.17838">
        <ele>1858.444</ele>
        <time>2011-04-20T10:22:55Z</time>
      </trkpt>
      <trkpt lat="33.39991" lon="-5.17604">
        <ele>1871.052</ele>
        <time>2011-04-20T10:23:07Z</time>
      </trkpt>
      <trkpt lat="33.39822" lon="-5.17365">
        <ele>1891.62</ele>
        <time>2011-04-20T10:23:22Z</time>
      </trkpt>
      <trkpt lat="33.39515" lon="-5.16924">
        <ele>1903.419</ele>
        <time>2011-04-20T10:23:47Z</time>
      </trkpt>
      <trkpt lat="33.39347" lon="-5.16765">
        <ele>1913.564</ele>
        <time>2011-04-20T10:23:58Z</time>
      </trkpt>
      <trkpt lat="33.38753" lon="-5.16477">
        <ele>1941.77</ele>
        <time>2011-04-20T10:24:30Z</time>
      </trkpt>
      <trkpt lat="33.38236" lon="-5.16254">
        <ele>1941.738</ele>
        <time>2011-04-20T10:25:02Z</time>
      </trkpt>
      <trkpt lat="33.36493" lon="-5.1502">
        <ele>1913.763</ele>
        <time>2011-04-20T10:26:34Z</time>
      </trkpt>
      <trkpt lat="33.36374" lon="-5.14978">
        <ele>1918.266</ele>
        <time>2011-04-20T10:26:40Z</time>
      </trkpt>
      <trkpt lat="33.35883" lon="-5.15">
        <ele>1932.368</ele>
        <time>2011-04-20T10:27:03Z</time>
      </trkpt>
      <trkpt lat="33.35799" lon="-5.14943">
        <ele>1939.171</ele>
        <time>2011-04-20T10:37:30Z</time>
      </trkpt>
      <trkpt lat="33.35487" lon="-5.14495">
        <ele>1930.835</ele>
        <time>2011-04-20T10:38:13Z</time>
      </trkpt>
      <trkpt lat="33.35301" lon="-5.14357">
        <ele>1931.727</ele>
        <time>2011-04-20T10:38:24Z</time>
      </trkpt>
      <trkpt lat="33.35226" lon="-5.14311">
        <ele>1935.057</ele>
        <time>2011-04-20T10:38:28Z</time>
      </trkpt>
      <trkpt lat="33.35035" lon="-5.14201">
        <ele>1931.729</ele>
        <time>2011-04-20T10:38:38Z</time>
      </trkpt>
      <trkpt lat="33.34316" lon="-5.13806">
        <ele>1929.251</ele>
        <time>2011-04-20T10:39:15Z</time>
      </trkpt>
      <trkpt lat="33.33532" lon="-5.13357">
        <ele>1926.951</ele>
        <time>2011-04-20T10:39:57Z</time>
      </trkpt>
      <trkpt lat="33.32817" lon="-5.13126">
        <ele>1939.885</ele>
        <time>2011-04-20T10:40:30Z</time>
      </trkpt>
      <trkpt lat="33.32802" lon="-5.13112">
        <ele>1939.887</ele>
        <time>2011-04-20T10:40:31Z</time>
      </trkpt>
      <trkpt lat="33.32301" lon="-5.12738">
        <ele>1937.686</ele>
        <time>2011-04-20T10:40:59Z</time>
      </trkpt>
      <trkpt lat="33.32188" lon="-5.12607">
        <ele>1936.603</ele>
        <time>2011-04-20T10:41:06Z</time>
      </trkpt>
      <trkpt lat="33.31618" lon="-5.11858">
        <ele>1918.985</ele>
        <time>2011-04-20T10:41:44Z</time>
      </trkpt>
      <trkpt lat="33.31491" lon="-5.11736">
        <ele>1911.403</ele>
        <time>2011-04-20T10:41:52Z</time>
      </trkpt>
      <trkpt lat="33.31149" lon="-5.11517">
        <ele>1895.32</ele>
        <time>2011-04-20T10:42:11Z</time>
      </trkpt>
      <trkpt lat="33.30639" lon="-5.1088">
        <ele>1869.335</ele>
        <time>2011-04-20T10:42:43Z</time>
      </trkpt>
      <trkpt lat="33.30423" lon="-5.10523">
        <ele>1874.605</ele>
        <time>2011-04-20T10:42:59Z</time>
      </trkpt>
      <trkpt lat="33.30363" lon="-5.1041">
        <ele>1871.391</ele>
        <time>2011-04-20T10:43:04Z</time>
      </trkpt>
      <trkpt lat="33.30277" lon="-5.10196">
        <ele>1871.08</ele>
        <time>2011-04-20T10:43:13Z</time>
      </trkpt>
      <trkpt lat="33.30188" lon="-5.09906">
        <ele>1866.336</ele>
        <time>2011-04-20T10:43:25Z</time>
      </trkpt>
      <trkpt lat="33.29933" lon="-5.09504">
        <ele>1860.538</ele>
        <time>2011-04-20T10:43:44Z</time>
      </trkpt>
      <trkpt lat="33.29441" lon="-5.08568">
        <ele>1858.787</ele>
        <time>2011-04-20T10:44:27Z</time>
      </trkpt>
      <trkpt lat="33.29346" lon="-5.08399">
        <ele>1857.703</ele>
        <time>2011-04-20T10:44:34Z</time>
      </trkpt>
      <trkpt lat="33.29038" lon="-5.07887">
        <ele>1843.532</ele>
        <time>2011-04-20T10:45:00Z</time>
      </trkpt>
      <trkpt lat="33.28859" lon="-5.0775">
        <ele>1837.481</ele>
        <time>2011-04-20T10:45:12Z</time>
      </trkpt>
      <trkpt lat="33.27892" lon="-5.07495">
        <ele>1827.398</ele>
        <time>2011-04-20T10:46:03Z</time>
      </trkpt>
      <trkpt lat="33.26882" lon="-5.07335">
        <ele>1830.584</ele>
        <time>2011-04-20T10:46:58Z</time>
      </trkpt>
      <trkpt lat="33.25924" lon="-5.07242">
        <ele>1812.158</ele>
        <time>2011-04-20T10:47:38Z</time>
      </trkpt>
      <trkpt lat="33.25597" lon="-5.07082">
        <ele>1802.346</ele>
        <time>2011-04-20T10:47:54Z</time>
      </trkpt>
      <trkpt lat="33.25178" lon="-5.07107">
        <ele>1810.947</ele>
        <time>2011-04-20T10:48:12Z</time>
      </trkpt>
      <trkpt lat="33.2423" lon="-5.07178">
        <ele>1815.551</ele>
        <time>2011-04-20T10:49:06Z</time>
      </trkpt>
      <trkpt lat="33.2413" lon="-5.07128">
        <ele>1819.123</ele>
        <time>2011-04-20T10:49:12Z</time>
      </trkpt>
      <trkpt lat="33.24057" lon="-5.07031">
        <ele>1822.41</ele>
        <time>2011-04-20T10:49:19Z</time>
      </trkpt>
      <trkpt lat="33.23872" lon="-5.06346">
        <ele>1813.547</ele>
        <time>2011-04-20T10:50:02Z</time>
      </trkpt>
      <trkpt lat="33.23716" lon="-5.06007">
        <ele>1816.756</ele>
        <time>2011-04-20T10:50:31Z</time>
      </trkpt>
      <trkpt lat="33.2365" lon="-5.05917">
        <ele>1816.779</ele>
        <time>2011-04-20T10:50:41Z</time>
      </trkpt>
      <trkpt lat="33.23413" lon="-5.05827">
        <ele>1822.629</ele>
        <time>2011-04-20T10:51:05Z</time>
      </trkpt>
      <trkpt lat="33.23175" lon="-5.05826">
        <ele>1828.944</ele>
        <time>2011-04-20T10:51:26Z</time>
      </trkpt>
      <trkpt lat="33.23092" lon="-5.05889">
        <ele>1832.978</ele>
        <time>2011-04-20T10:51:33Z</time>
      </trkpt>
      <trkpt lat="33.22951" lon="-5.05993">
        <ele>1835.917</ele>
        <time>2011-04-20T10:51:44Z</time>
      </trkpt>
      <trkpt lat="33.22796" lon="-5.06009">
        <ele>1839.46</ele>
        <time>2011-04-20T10:51:54Z</time>
      </trkpt>
      <trkpt lat="33.21278" lon="-5.05968">
        <ele>1853.206</ele>
        <time>2011-04-20T10:53:09Z</time>
      </trkpt>
      <trkpt lat="33.21097" lon="-5.05992">
        <ele>1853.617</ele>
        <time>2011-04-20T10:53:18Z</time>
      </trkpt>
      <trkpt lat="33.2085" lon="-5.06106">
        <ele>1873.229</ele>
        <time>2011-04-20T10:53:31Z</time>
      </trkpt>
      <trkpt lat="33.20121" lon="-5.06352">
        <ele>1866.236</ele>
        <time>2011-04-20T10:54:08Z</time>
      </trkpt>
      <trkpt lat="33.19918" lon="-5.06389">
        <ele>1864.992</ele>
        <time>2011-04-20T10:54:18Z</time>
      </trkpt>
      <trkpt lat="33.19484" lon="-5.06347">
        <ele>1869.876</ele>
        <time>2011-04-20T10:54:39Z</time>
      </trkpt>
      <trkpt lat="33.19135" lon="-5.06216">
        <ele>1877.836</ele>
        <time>2011-04-20T10:54:58Z</time>
      </trkpt>
      <trkpt lat="33.18973" lon="-5.06193">
        <ele>1884.826</ele>
        <time>2011-04-20T10:55:06Z</time>
      </trkpt>
      <trkpt lat="33.18953" lon="-5.0619">
        <ele>1884.825</ele>
        <time>2011-04-20T10:55:07Z</time>
      </trkpt>
      <trkpt lat="33.18572" lon="-5.06214">
        <ele>1899.397</ele>
        <time>2011-04-20T10:55:28Z</time>
      </trkpt>
      <trkpt lat="33.18006" lon="-5.06056">
        <ele>1899.101</ele>
        <time>2011-04-20T10:56:00Z</time>
      </trkpt>
      <trkpt lat="33.17663" lon="-5.06168">
        <ele>1907.384</ele>
        <time>2011-04-20T10:56:19Z</time>
      </trkpt>
      <trkpt lat="33.17487" lon="-5.06161">
        <ele>1909.28</ele>
        <time>2011-04-20T10:56:28Z</time>
      </trkpt>
      <trkpt lat="33.173" lon="-5.06197">
        <ele>1904.493</ele>
        <time>2011-04-20T10:56:38Z</time>
      </trkpt>
      <trkpt lat="33.16464" lon="-5.06656">
        <ele>1910.372</ele>
        <time>2011-04-20T10:57:23Z</time>
      </trkpt>
      <trkpt lat="33.16337" lon="-5.06649">
        <ele>1911.28</ele>
        <time>2011-04-20T10:57:30Z</time>
      </trkpt>
      <trkpt lat="33.16027" lon="-5.06592">
        <ele>1905.643</ele>
        <time>2011-04-20T10:57:47Z</time>
      </trkpt>
      <trkpt lat="33.156" lon="-5.06775">
        <ele>1906.37</ele>
        <time>2011-04-20T10:58:10Z</time>
      </trkpt>
      <trkpt lat="33.15483" lon="-5.06826">
        <ele>1904.427</ele>
        <time>2011-04-20T10:58:17Z</time>
      </trkpt>
      <trkpt lat="33.15399" lon="-5.06819">
        <ele>1904.853</ele>
        <time>2011-04-20T10:58:23Z</time>
      </trkpt>
      <trkpt lat="33.15309" lon="-5.06742">
        <ele>1908.354</ele>
        <time>2011-04-20T10:58:31Z</time>
      </trkpt>
      <trkpt lat="33.15244" lon="-5.06581">
        <ele>1911.132</ele>
        <time>2011-04-20T10:58:40Z</time>
      </trkpt>
      <trkpt lat="33.15204" lon="-5.0631">
        <ele>1911.551</ele>
        <time>2011-04-20T10:58:52Z</time>
      </trkpt>
      <trkpt lat="33.15069" lon="-5.06046">
        <ele>1914.532</ele>
        <time>2011-04-20T10:59:05Z</time>
      </trkpt>
      <trkpt lat="33.15004" lon="-5.05838">
        <ele>1916.338</ele>
        <time>2011-04-20T10:59:15Z</time>
      </trkpt>
      <trkpt lat="33.14974" lon="-5.05653">
        <ele>1917.12</ele>
        <time>2011-04-20T10:59:24Z</time>
      </trkpt>
      <trkpt lat="33.14852" lon="-5.05542">
        <ele>1924.047</ele>
        <time>2011-04-20T10:59:33Z</time>
      </trkpt>
      <trkpt lat="33.14422" lon="-5.05397">
        <ele>1927.805</ele>
        <time>2011-04-20T10:59:56Z</time>
      </trkpt>
      <trkpt lat="33.14356" lon="-5.05345">
        <ele>1928.535</ele>
        <time>2011-04-20T11:00:00Z</time>
      </trkpt>
      <trkpt lat="33.13796" lon="-5.04658">
        <ele>1936.678</ele>
        <time>2011-04-20T11:00:38Z</time>
      </trkpt>
      <trkpt lat="33.1324" lon="-5.03694">
        <ele>1939.913</ele>
        <time>2011-04-20T11:01:23Z</time>
      </trkpt>
      <trkpt lat="33.13112" lon="-5.03536">
        <ele>1937.882</ele>
        <time>2011-04-20T11:01:32Z</time>
      </trkpt>
      <trkpt lat="33.12828" lon="-5.03452">
        <ele>1940.057</ele>
        <time>2011-04-20T11:01:47Z</time>
      </trkpt>
      <trkpt lat="33.12548" lon="-5.03257">
        <ele>1951.16</ele>
        <time>2011-04-20T11:02:04Z</time>
      </trkpt>
      <trkpt lat="33.12099" lon="-5.02998">
        <ele>1952.761</ele>
        <time>2011-04-20T11:02:28Z</time>
      </trkpt>
      <trkpt lat="33.11719" lon="-5.03027">
        <ele>1973.186</ele>
        <time>2011-04-20T11:02:47Z</time>
      </trkpt>
      <trkpt lat="33.11557" lon="-5.02979">
        <ele>1979.894</ele>
        <time>2011-04-20T11:02:56Z</time>
      </trkpt>
      <trkpt lat="33.11249" lon="-5.02733">
        <ele>1983.298</ele>
        <time>2011-04-20T11:03:19Z</time>
      </trkpt>
      <trkpt lat="33.10844" lon="-5.02594">
        <ele>1995.827</ele>
        <time>2011-04-20T11:03:40Z</time>
      </trkpt>
      <trkpt lat="33.1074" lon="-5.0251">
        <ele>1999.078</ele>
        <time>2011-04-20T11:03:46Z</time>
      </trkpt>
      <trkpt lat="33.10581" lon="-5.02417">
        <ele>2001.376</ele>
        <time>2011-04-20T11:03:55Z</time>
      </trkpt>
      <trkpt lat="33.10481" lon="-5.02404">
        <ele>2003.552</ele>
        <time>2011-04-20T11:04:00Z</time>
      </trkpt>
      <trkpt lat="33.10216" lon="-5.02492">
        <ele>2009.849</ele>
        <time>2011-04-20T11:04:13Z</time>
      </trkpt>
      <trkpt lat="33.09943" lon="-5.0244">
        <ele>2021.902</ele>
        <time>2011-04-20T11:04:27Z</time>
      </trkpt>
      <trkpt lat="33.09551" lon="-5.02265">
        <ele>2032.309</ele>
        <time>2011-04-20T11:04:50Z</time>
      </trkpt>
      <trkpt lat="33.09137" lon="-5.02">
        <ele>2046.944</ele>
        <time>2011-04-20T11:05:14Z</time>
      </trkpt>
      <trkpt lat="33.08976" lon="-5.01865">
        <ele>2050.393</ele>
        <time>2011-04-20T11:05:24Z</time>
      </trkpt>
      <trkpt lat="33.08812" lon="-5.01818">
        <ele>2053.792</ele>
        <time>2011-04-20T11:05:32Z</time>
      </trkpt>
      <trkpt lat="33.08406" lon="-5.01775">
        <ele>2070.114</ele>
        <time>2011-04-20T11:05:52Z</time>
      </trkpt>
      <trkpt lat="33.08273" lon="-5.01759">
        <ele>2074.229</ele>
        <time>2011-04-20T11:05:59Z</time>
      </trkpt>
      <trkpt lat="33.08216" lon="-5.01751">
        <ele>2075.535</ele>
        <time>2011-04-20T11:06:02Z</time>
      </trkpt>
      <trkpt lat="33.08067" lon="-5.01761">
        <ele>2079.99</ele>
        <time>2011-04-20T11:06:10Z</time>
      </trkpt>
      <trkpt lat="33.07963" lon="-5.01823">
        <ele>2084.158</ele>
        <time>2011-04-20T11:06:16Z</time>
      </trkpt>
      <trkpt lat="33.07432" lon="-5.02131">
        <ele>2087.917</ele>
        <time>2011-04-20T11:06:58Z</time>
      </trkpt>
      <trkpt lat="33.06774" lon="-5.02917">
        <ele>2088.674</ele>
        <time>2011-04-20T11:07:41Z</time>
      </trkpt>
      <trkpt lat="33.06557" lon="-5.03158">
        <ele>2088.137</ele>
        <time>2011-04-20T11:07:56Z</time>
      </trkpt>
      <trkpt lat="33.06175" lon="-5.03431">
        <ele>2087.636</ele>
        <time>2011-04-20T11:08:21Z</time>
      </trkpt>
      <trkpt lat="33.06048" lon="-5.03638">
        <ele>2089.013</ele>
        <time>2011-04-20T11:08:33Z</time>
      </trkpt>
      <trkpt lat="33.05722" lon="-5.03862">
        <ele>2098.697</ele>
        <time>2011-04-20T11:08:55Z</time>
      </trkpt>
      <trkpt lat="33.04921" lon="-5.04502">
        <ele>2104.995</ele>
        <time>2011-04-20T11:09:37Z</time>
      </trkpt>
      <trkpt lat="33.04706" lon="-5.04716">
        <ele>2120.07</ele>
        <time>2011-04-20T11:09:49Z</time>
      </trkpt>
      <trkpt lat="33.04596" lon="-5.04995">
        <ele>2129.013</ele>
        <time>2011-04-20T11:10:03Z</time>
      </trkpt>
      <trkpt lat="33.04273" lon="-5.05548">
        <ele>2135.278</ele>
        <time>2011-04-20T11:10:30Z</time>
      </trkpt>
      <trkpt lat="33.04071" lon="-5.05889">
        <ele>2131.905</ele>
        <time>2011-04-20T11:10:46Z</time>
      </trkpt>
      <trkpt lat="33.03666" lon="-5.06185">
        <ele>2134.568</ele>
        <time>2011-04-20T11:11:07Z</time>
      </trkpt>
      <trkpt lat="33.03318" lon="-5.06517">
        <ele>2140.841</ele>
        <time>2011-04-20T11:11:27Z</time>
      </trkpt>
      <trkpt lat="33.03101" lon="-5.06937">
        <ele>2132.318</ele>
        <time>2011-04-20T11:11:47Z</time>
      </trkpt>
      <trkpt lat="33.0289" lon="-5.07161">
        <ele>2126.839</ele>
        <time>2011-04-20T11:12:01Z</time>
      </trkpt>
      <trkpt lat="33.02529" lon="-5.07252">
        <ele>2147.308</ele>
        <time>2011-04-20T11:12:22Z</time>
      </trkpt>
      <trkpt lat="33.02207" lon="-5.07255">
        <ele>2171.448</ele>
        <time>2011-04-20T11:12:45Z</time>
      </trkpt>
      <trkpt lat="33.0202" lon="-5.07292">
        <ele>2176.889</ele>
        <time>2011-04-20T11:12:59Z</time>
      </trkpt>
      <trkpt lat="33.0197" lon="-5.07313">
        <ele>2177.153</ele>
        <time>2011-04-20T11:13:03Z</time>
      </trkpt>
      <trkpt lat="33.01862" lon="-5.07308">
        <ele>2175.602</ele>
        <time>2011-04-20T11:13:11Z</time>
      </trkpt>
      <trkpt lat="33.01704" lon="-5.07235">
        <ele>2172.025</ele>
        <time>2011-04-20T11:13:22Z</time>
      </trkpt>
      <trkpt lat="33.01542" lon="-5.07191">
        <ele>2166.699</ele>
        <time>2011-04-20T11:13:31Z</time>
      </trkpt>
      <trkpt lat="33.01127" lon="-5.07208">
        <ele>2171.421</ele>
        <time>2011-04-20T11:13:54Z</time>
      </trkpt>
      <trkpt lat="33.00914" lon="-5.07228">
        <ele>2169.662</ele>
        <time>2011-04-20T11:14:06Z</time>
      </trkpt>
      <trkpt lat="33.003" lon="-5.07337">
        <ele>2148.668</ele>
        <time>2011-04-20T11:14:41Z</time>
      </trkpt>
      <trkpt lat="33.00102" lon="-5.07383">
        <ele>2136.773</ele>
        <time>2011-04-20T11:14:53Z</time>
      </trkpt>
      <trkpt lat="33.00029" lon="-5.07444">
        <ele>2131.691</ele>
        <time>2011-04-20T11:15:00Z</time>
      </trkpt>
      <trkpt lat="32.99964" lon="-5.07454">
        <ele>2130.107</ele>
        <time>2011-04-20T11:15:06Z</time>
      </trkpt>
      <trkpt lat="32.99862" lon="-5.07369">
        <ele>2124.554</ele>
        <time>2011-04-20T11:15:18Z</time>
      </trkpt>
      <trkpt lat="32.99748" lon="-5.07368">
        <ele>2118.66</ele>
        <time>2011-04-20T11:15:26Z</time>
      </trkpt>
      <trkpt lat="32.99648" lon="-5.07315">
        <ele>2117.208</ele>
        <time>2011-04-20T11:15:34Z</time>
      </trkpt>
      <trkpt lat="32.99548" lon="-5.07306">
        <ele>2108.976</ele>
        <time>2011-04-20T11:15:41Z</time>
      </trkpt>
      <trkpt lat="32.99412" lon="-5.0711">
        <ele>2102.262</ele>
        <time>2011-04-20T11:15:57Z</time>
      </trkpt>
      <trkpt lat="32.99283" lon="-5.07042">
        <ele>2094.174</ele>
        <time>2011-04-20T11:16:07Z</time>
      </trkpt>
      <trkpt lat="32.98857" lon="-5.07099">
        <ele>2081.777</ele>
        <time>2011-04-20T11:16:30Z</time>
      </trkpt>
      <trkpt lat="32.98718" lon="-5.07111">
        <ele>2066.727</ele>
        <time>2011-04-20T11:16:39Z</time>
      </trkpt>
      <trkpt lat="32.98657" lon="-5.07056">
        <ele>2063.152</ele>
        <time>2011-04-20T11:16:45Z</time>
      </trkpt>
      <trkpt lat="32.98595" lon="-5.06941">
        <ele>2059.477</ele>
        <time>2011-04-20T11:16:53Z</time>
      </trkpt>
      <trkpt lat="32.98536" lon="-5.06853">
        <ele>2055.126</ele>
        <time>2011-04-20T11:17:00Z</time>
      </trkpt>
      <trkpt lat="32.98392" lon="-5.06744">
        <ele>2047.989</ele>
        <time>2011-04-20T11:17:12Z</time>
      </trkpt>
      <trkpt lat="32.98225" lon="-5.06678">
        <ele>2038.621</ele>
        <time>2011-04-20T11:17:27Z</time>
      </trkpt>
      <trkpt lat="32.9815" lon="-5.06568">
        <ele>2031.931</ele>
        <time>2011-04-20T11:17:37Z</time>
      </trkpt>
      <trkpt lat="32.97948" lon="-5.06551">
        <ele>2023.769</ele>
        <time>2011-04-20T11:17:53Z</time>
      </trkpt>
      <trkpt lat="32.97726" lon="-5.06327">
        <ele>2014.811</ele>
        <time>2011-04-20T11:18:13Z</time>
      </trkpt>
      <trkpt lat="32.9761" lon="-5.06121">
        <ele>2014.359</ele>
        <time>2011-04-20T11:18:28Z</time>
      </trkpt>
      <trkpt lat="32.97462" lon="-5.06004">
        <ele>2002.178</ele>
        <time>2011-04-20T11:18:40Z</time>
      </trkpt>
      <trkpt lat="32.97398" lon="-5.05847">
        <ele>1992.938</ele>
        <time>2011-04-20T11:18:53Z</time>
      </trkpt>
      <trkpt lat="32.97297" lon="-5.05742">
        <ele>1983.953</ele>
        <time>2011-04-20T11:19:02Z</time>
      </trkpt>
      <trkpt lat="32.97257" lon="-5.05714">
        <ele>1978.074</ele>
        <time>2011-04-20T11:19:07Z</time>
      </trkpt>
      <trkpt lat="32.97049" lon="-5.0576">
        <ele>1964.666</ele>
        <time>2011-04-20T11:19:25Z</time>
      </trkpt>
      <trkpt lat="32.96952" lon="-5.05812">
        <ele>1955.398</ele>
        <time>2011-04-20T11:19:34Z</time>
      </trkpt>
      <trkpt lat="32.96873" lon="-5.05807">
        <ele>1951.469</ele>
        <time>2011-04-20T11:19:42Z</time>
      </trkpt>
      <trkpt lat="32.96556" lon="-5.05682">
        <ele>1930.791</ele>
        <time>2011-04-20T11:20:33Z</time>
      </trkpt>
      <trkpt lat="32.96416" lon="-5.05626">
        <ele>1915.756</ele>
        <time>2011-04-20T11:20:41Z</time>
      </trkpt>
      <trkpt lat="32.96254" lon="-5.05596">
        <ele>1903.907</ele>
        <time>2011-04-20T11:20:50Z</time>
      </trkpt>
      <trkpt lat="32.95886" lon="-5.05348">
        <ele>1876.363</ele>
        <time>2011-04-20T11:21:12Z</time>
      </trkpt>
      <trkpt lat="32.95687" lon="-5.05292">
        <ele>1868.551</ele>
        <time>2011-04-20T11:21:24Z</time>
      </trkpt>
      <trkpt lat="32.9538" lon="-5.05386">
        <ele>1860.888</ele>
        <time>2011-04-20T11:21:40Z</time>
      </trkpt>
      <trkpt lat="32.95186" lon="-5.05521">
        <ele>1858.987</ele>
        <time>2011-04-20T11:21:51Z</time>
      </trkpt>
      <trkpt lat="32.95045" lon="-5.0561">
        <ele>1856.064</ele>
        <time>2011-04-20T11:21:58Z</time>
      </trkpt>
      <trkpt lat="32.94539" lon="-5.05935">
        <ele>1829.593</ele>
        <time>2011-04-20T11:22:25Z</time>
      </trkpt>
      <trkpt lat="32.94327" lon="-5.06008">
        <ele>1821.05</ele>
        <time>2011-04-20T11:22:36Z</time>
      </trkpt>
      <trkpt lat="32.94072" lon="-5.06078">
        <ele>1803.908</ele>
        <time>2011-04-20T11:22:50Z</time>
      </trkpt>
      <trkpt lat="32.9399" lon="-5.06056">
        <ele>1798.235</ele>
        <time>2011-04-20T11:22:56Z</time>
      </trkpt>
      <trkpt lat="32.93882" lon="-5.05809">
        <ele>1785.649</ele>
        <time>2011-04-20T11:23:10Z</time>
      </trkpt>
      <trkpt lat="32.93134" lon="-5.05383">
        <ele>1760.498</ele>
        <time>2011-04-20T11:23:58Z</time>
      </trkpt>
      <trkpt lat="32.93048" lon="-5.05194">
        <ele>1758.492</ele>
        <time>2011-04-20T11:24:10Z</time>
      </trkpt>
      <trkpt lat="32.92999" lon="-5.05114">
        <ele>1752.545</ele>
        <time>2011-04-20T11:24:15Z</time>
      </trkpt>
      <trkpt lat="32.91373" lon="-5.03569">
        <ele>1687.861</ele>
        <time>2011-04-20T11:25:59Z</time>
      </trkpt>
      <trkpt lat="32.90245" lon="-5.02469">
        <ele>1638.713</ele>
        <time>2011-04-20T11:27:13Z</time>
      </trkpt>
      <trkpt lat="32.90132" lon="-5.02211">
        <ele>1632.336</ele>
        <time>2011-04-20T11:27:25Z</time>
      </trkpt>
      <trkpt lat="32.88878" lon="-4.98124">
        <ele>1573.627</ele>
        <time>2011-04-20T11:29:55Z</time>
      </trkpt>
      <trkpt lat="32.88681" lon="-4.97461">
        <ele>1554.932</ele>
        <time>2011-04-20T11:30:18Z</time>
      </trkpt>
      <trkpt lat="32.88626" lon="-4.96823">
        <ele>1544.572</ele>
        <time>2011-04-20T11:30:40Z</time>
      </trkpt>
      <trkpt lat="32.88543" lon="-4.96182">
        <ele>1528.706</ele>
        <time>2011-04-20T11:31:03Z</time>
      </trkpt>
      <trkpt lat="32.88509" lon="-4.9598">
        <ele>1518.866</ele>
        <time>2011-04-20T11:31:12Z</time>
      </trkpt>
      <trkpt lat="32.88341" lon="-4.95732">
        <ele>1506.477</ele>
        <time>2011-04-20T11:31:28Z</time>
      </trkpt>
      <trkpt lat="32.88113" lon="-4.95239">
        <ele>1486.076</ele>
        <time>2011-04-20T11:31:56Z</time>
      </trkpt>
      <trkpt lat="32.87969" lon="-4.94995">
        <ele>1482.05</ele>
        <time>2011-04-20T11:32:10Z</time>
      </trkpt>
      <trkpt lat="32.87764" lon="-4.94696">
        <ele>1487.157</ele>
        <time>2011-04-20T11:32:26Z</time>
      </trkpt>
      <trkpt lat="32.87657" lon="-4.9459">
        <ele>1487.887</ele>
        <time>2011-04-20T11:32:33Z</time>
      </trkpt>
      <trkpt lat="32.87164" lon="-4.94416">
        <ele>1485.38</ele>
        <time>2011-04-20T11:32:58Z</time>
      </trkpt>
      <trkpt lat="32.86971" lon="-4.94396">
        <ele>1485.346</ele>
        <time>2011-04-20T11:33:08Z</time>
      </trkpt>
      <trkpt lat="32.86634" lon="-4.94442">
        <ele>1484.161</ele>
        <time>2011-04-20T11:33:25Z</time>
      </trkpt>
      <trkpt lat="32.8586" lon="-4.94599">
        <ele>1479.671</ele>
        <time>2011-04-20T11:34:01Z</time>
      </trkpt>
      <trkpt lat="32.84979" lon="-4.94855">
        <ele>1462.538</ele>
        <time>2011-04-20T11:34:44Z</time>
      </trkpt>
      <trkpt lat="32.84624" lon="-4.95133">
        <ele>1470.209</ele>
        <time>2011-04-20T11:35:05Z</time>
      </trkpt>
      <trkpt lat="32.84341" lon="-4.95277">
        <ele>1473.469</ele>
        <time>2011-04-20T11:35:22Z</time>
      </trkpt>
      <trkpt lat="32.83783" lon="-4.95736">
        <ele>1474.96</ele>
        <time>2011-04-20T11:35:57Z</time>
      </trkpt>
      <trkpt lat="32.83436" lon="-4.96011">
        <ele>1470.34</ele>
        <time>2011-04-20T11:36:19Z</time>
      </trkpt>
      <trkpt lat="32.83263" lon="-4.96077">
        <ele>1473.498</ele>
        <time>2011-04-20T11:36:31Z</time>
      </trkpt>
      <trkpt lat="32.82386" lon="-4.9614">
        <ele>1469.976</ele>
        <time>2011-04-20T11:37:35Z</time>
      </trkpt>
      <trkpt lat="32.82115" lon="-4.95997">
        <ele>1466.979</ele>
        <time>2011-04-20T11:37:59Z</time>
      </trkpt>
      <trkpt lat="32.81815" lon="-4.95941">
        <ele>1465.835</ele>
        <time>2011-04-20T11:38:48Z</time>
      </trkpt>
      <trkpt lat="32.81611" lon="-4.95826">
        <ele>1466.901</ele>
        <time>2011-04-20T11:39:13Z</time>
      </trkpt>
      <trkpt lat="32.81199" lon="-4.95465">
        <ele>1475.24</ele>
        <time>2011-04-20T11:40:00Z</time>
      </trkpt>
      <trkpt lat="32.81145" lon="-4.95416">
        <ele>1474.127</ele>
        <time>2011-04-20T11:40:10Z</time>
      </trkpt>
      <trkpt lat="32.81171" lon="-4.95439">
        <ele>1474.846</ele>
        <time>2011-04-20T11:40:21Z</time>
      </trkpt>
      <trkpt lat="32.81141" lon="-4.95502">
        <ele>1479.502</ele>
        <time>2011-04-20T12:14:10Z</time>
      </trkpt>
      <trkpt lat="32.81142" lon="-4.95504">
        <ele>1478.277</ele>
        <time>2011-04-20T12:14:12Z</time>
      </trkpt>
      <trkpt lat="32.81169" lon="-4.95437">
        <ele>1473.396</ele>
        <time>2011-04-20T12:15:12Z</time>
      </trkpt>
      <trkpt lat="32.8114" lon="-4.95435">
        <ele>1473.38</ele>
        <time>2011-04-20T12:15:18Z</time>
      </trkpt>
      <trkpt lat="32.81085" lon="-4.95365">
        <ele>1475.526</ele>
        <time>2011-04-20T12:15:30Z</time>
      </trkpt>
      <trkpt lat="32.80557" lon="-4.94912">
        <ele>1488.375</ele>
        <time>2011-04-20T12:16:05Z</time>
      </trkpt>
      <trkpt lat="32.80523" lon="-4.94883">
        <ele>1489.038</ele>
        <time>2011-04-20T12:16:07Z</time>
      </trkpt>
      <trkpt lat="32.80219" lon="-4.94623">
        <ele>1488.614</ele>
        <time>2011-04-20T12:16:25Z</time>
      </trkpt>
      <trkpt lat="32.79435" lon="-4.94209">
        <ele>1499.188</ele>
        <time>2011-04-20T12:17:05Z</time>
      </trkpt>
      <trkpt lat="32.79217" lon="-4.93877">
        <ele>1502.708</ele>
        <time>2011-04-20T12:17:21Z</time>
      </trkpt>
      <trkpt lat="32.79108" lon="-4.93736">
        <ele>1505.364</ele>
        <time>2011-04-20T12:17:29Z</time>
      </trkpt>
      <trkpt lat="32.79052" lon="-4.93697">
        <ele>1506.363</ele>
        <time>2011-04-20T12:17:32Z</time>
      </trkpt>
      <trkpt lat="32.78586" lon="-4.93536">
        <ele>1507.501</ele>
        <time>2011-04-20T12:17:53Z</time>
      </trkpt>
      <trkpt lat="32.75705" lon="-4.92621">
        <ele>1493.232</ele>
        <time>2011-04-20T12:19:54Z</time>
      </trkpt>
      <trkpt lat="32.75547" lon="-4.92455">
        <ele>1490.735</ele>
        <time>2011-04-20T12:20:03Z</time>
      </trkpt>
      <trkpt lat="32.75021" lon="-4.91697">
        <ele>1485.706</ele>
        <time>2011-04-20T12:20:44Z</time>
      </trkpt>
      <trkpt lat="32.74775" lon="-4.91377">
        <ele>1471.21</ele>
        <time>2011-04-20T12:21:01Z</time>
      </trkpt>
      <trkpt lat="32.74644" lon="-4.91328">
        <ele>1465.231</ele>
        <time>2011-04-20T12:21:08Z</time>
      </trkpt>
      <trkpt lat="32.74411" lon="-4.91309">
        <ele>1461.634</ele>
        <time>2011-04-20T12:21:22Z</time>
      </trkpt>
      <trkpt lat="32.74382" lon="-4.91302">
        <ele>1459.419</ele>
        <time>2011-04-20T12:21:24Z</time>
      </trkpt>
      <trkpt lat="32.73818" lon="-4.91063">
        <ele>1470.857</ele>
        <time>2011-04-20T12:21:59Z</time>
      </trkpt>
      <trkpt lat="32.73497" lon="-4.90871">
        <ele>1473.436</ele>
        <time>2011-04-20T12:22:20Z</time>
      </trkpt>
      <trkpt lat="32.72094" lon="-4.88736">
        <ele>1524.462</ele>
        <time>2011-04-20T12:23:57Z</time>
      </trkpt>
      <trkpt lat="32.71832" lon="-4.88497">
        <ele>1531.191</ele>
        <time>2011-04-20T12:24:12Z</time>
      </trkpt>
      <trkpt lat="32.71741" lon="-4.88365">
        <ele>1536.89</ele>
        <time>2011-04-20T12:24:18Z</time>
      </trkpt>
      <trkpt lat="32.71055" lon="-4.87323">
        <ele>1545.956</ele>
        <time>2011-04-20T12:25:06Z</time>
      </trkpt>
      <trkpt lat="32.70979" lon="-4.87163">
        <ele>1548.369</ele>
        <time>2011-04-20T12:25:13Z</time>
      </trkpt>
      <trkpt lat="32.70531" lon="-4.85235">
        <ele>1533.444</ele>
        <time>2011-04-20T12:26:25Z</time>
      </trkpt>
      <trkpt lat="32.70468" lon="-4.85073">
        <ele>1530.478</ele>
        <time>2011-04-20T12:26:32Z</time>
      </trkpt>
      <trkpt lat="32.7036" lon="-4.8492">
        <ele>1525.866</ele>
        <time>2011-04-20T12:26:39Z</time>
      </trkpt>
      <trkpt lat="32.70201" lon="-4.84762">
        <ele>1520.979</ele>
        <time>2011-04-20T12:26:48Z</time>
      </trkpt>
      <trkpt lat="32.69874" lon="-4.84427">
        <ele>1506.928</ele>
        <time>2011-04-20T12:27:07Z</time>
      </trkpt>
      <trkpt lat="32.69771" lon="-4.84196">
        <ele>1500.202</ele>
        <time>2011-04-20T12:27:17Z</time>
      </trkpt>
      <trkpt lat="32.69747" lon="-4.82356">
        <ele>1482.232</ele>
        <time>2011-04-20T12:28:25Z</time>
      </trkpt>
      <trkpt lat="32.6987" lon="-4.81357">
        <ele>1471.574</ele>
        <time>2011-04-20T12:29:02Z</time>
      </trkpt>
      <trkpt lat="32.69928" lon="-4.81222">
        <ele>1471.501</ele>
        <time>2011-04-20T12:29:08Z</time>
      </trkpt>
      <trkpt lat="32.70339" lon="-4.80664">
        <ele>1456.369</ele>
        <time>2011-04-20T12:29:35Z</time>
      </trkpt>
      <trkpt lat="32.70487" lon="-4.8039">
        <ele>1453.097</ele>
        <time>2011-04-20T12:29:48Z</time>
      </trkpt>
      <trkpt lat="32.70648" lon="-4.79652">
        <ele>1441.054</ele>
        <time>2011-04-20T12:30:20Z</time>
      </trkpt>
      <trkpt lat="32.70631" lon="-4.79185">
        <ele>1441.172</ele>
        <time>2011-04-20T12:30:42Z</time>
      </trkpt>
      <trkpt lat="32.70584" lon="-4.78086">
        <ele>1424.635</ele>
        <time>2011-04-20T12:31:36Z</time>
      </trkpt>
      <trkpt lat="32.70541" lon="-4.77849">
        <ele>1422.86</ele>
        <time>2011-04-20T12:31:49Z</time>
      </trkpt>
      <trkpt lat="32.70263" lon="-4.7739">
        <ele>1439.053</ele>
        <time>2011-04-20T12:32:19Z</time>
      </trkpt>
      <trkpt lat="32.70091" lon="-4.76566">
        <ele>1451.633</ele>
        <time>2011-04-20T12:33:01Z</time>
      </trkpt>
      <trkpt lat="32.70078" lon="-4.76365">
        <ele>1457.213</ele>
        <time>2011-04-20T12:33:11Z</time>
      </trkpt>
      <trkpt lat="32.70092" lon="-4.75967">
        <ele>1449.514</ele>
        <time>2011-04-20T12:33:31Z</time>
      </trkpt>
      <trkpt lat="32.69878" lon="-4.75503">
        <ele>1451.48</ele>
        <time>2011-04-20T12:36:10Z</time>
      </trkpt>
      <trkpt lat="32.69793" lon="-4.75393">
        <ele>1454.603</ele>
        <time>2011-04-20T12:36:26Z</time>
      </trkpt>
      <trkpt lat="32.69662" lon="-4.75345">
        <ele>1457.168</ele>
        <time>2011-04-20T12:36:39Z</time>
      </trkpt>
      <trkpt lat="32.69494" lon="-4.75304">
        <ele>1456.196</ele>
        <time>2011-04-20T12:36:56Z</time>
      </trkpt>
      <trkpt lat="32.69312" lon="-4.75183">
        <ele>1458.529</ele>
        <time>2011-04-20T12:37:24Z</time>
      </trkpt>
      <trkpt lat="32.68612" lon="-4.744">
        <ele>1464.368</ele>
        <time>2011-04-20T12:39:29Z</time>
      </trkpt>
      <trkpt lat="32.68398" lon="-4.7433">
        <ele>1472.198</ele>
        <time>2011-04-20T12:39:52Z</time>
      </trkpt>
      <trkpt lat="32.68342" lon="-4.74284">
        <ele>1476.848</ele>
        <time>2011-04-20T12:40:06Z</time>
      </trkpt>
      <trkpt lat="32.68241" lon="-4.74329">
        <ele>1481.859</ele>
        <time>2011-04-20T12:40:15Z</time>
      </trkpt>
      <trkpt lat="32.68094" lon="-4.74321">
        <ele>1483.905</ele>
        <time>2011-04-20T12:40:34Z</time>
      </trkpt>
      <trkpt lat="32.68056" lon="-4.74274">
        <ele>1485.565</ele>
        <time>2011-04-20T12:40:41Z</time>
      </trkpt>
      <trkpt lat="32.67937" lon="-4.74017">
        <ele>1475.836</ele>
        <time>2011-04-20T12:41:18Z</time>
      </trkpt>
      <trkpt lat="32.67962" lon="-4.73514">
        <ele>1473.51</ele>
        <time>2011-04-20T12:42:35Z</time>
      </trkpt>
      <trkpt lat="32.67886" lon="-4.73277">
        <ele>1479.202</ele>
        <time>2011-04-20T12:43:04Z</time>
      </trkpt>
      <trkpt lat="32.67867" lon="-4.73146">
        <ele>1479.618</ele>
        <time>2011-04-20T12:43:14Z</time>
      </trkpt>
      <trkpt lat="32.67867" lon="-4.73121">
        <ele>1478.182</ele>
        <time>2011-04-20T12:43:16Z</time>
      </trkpt>
      <trkpt lat="32.68001" lon="-4.72584">
        <ele>1485.014</ele>
        <time>2011-04-20T12:44:04Z</time>
      </trkpt>
      <trkpt lat="32.68039" lon="-4.72394">
        <ele>1483.043</ele>
        <time>2011-04-20T12:44:18Z</time>
      </trkpt>
      <trkpt lat="32.68095" lon="-4.72017">
        <ele>1485.272</ele>
        <time>2011-04-20T12:44:43Z</time>
      </trkpt>
      <trkpt lat="32.68106" lon="-4.71721">
        <ele>1497.69</ele>
        <time>2011-04-20T12:45:04Z</time>
      </trkpt>
      <trkpt lat="32.68185" lon="-4.71319">
        <ele>1499.658</ele>
        <time>2011-04-20T12:45:37Z</time>
      </trkpt>
      <trkpt lat="32.68186" lon="-4.71316">
        <ele>1498.849</ele>
        <time>2011-04-20T12:45:39Z</time>
      </trkpt>
      <trkpt lat="32.64466" lon="-4.77262">
        <ele>1587.619</ele>
        <time>2011-04-20T14:24:00Z</time>
      </trkpt>
      <trkpt lat="32.64462" lon="-4.77272">
        <ele>1579.238</ele>
        <time>2011-04-20T19:53:42Z</time>
      </trkpt>
    </trkseg>
  </trk>
</gpx>